Time;durP1;ratioP1;P1;durP2;ratioP2;P2;SDS_P1;SDS_P2;PMS_P1;PMS_P2;Temp;Humidity;BMP_temperature;BMP_pressure;BME280_temperature;BME280_humidity;BME280_pressure;Samples;Min_cycle;Max_cycle;Signal;HPM_P1;HPM_P2
2022/02/17 00:01:28;;;;;;;3.60;1.90;;;;;;;8.89;69.17;98029.67;89444;1279;81883;-69
2022/02/17 00:03:36;;;;;;;3.40;2.10;;;;;;;8.89;69.25;98021.80;89404;1279;98977;-70
2022/02/17 00:05:42;;;;;;;3.50;1.80;;;;;;;8.86;69.33;98007.27;89416;1279;89689;-58
2022/02/17 00:07:51;;;;;;;4.90;1.70;;;;;;;8.86;69.30;97992.63;89428;1279;95586;-57
2022/02/17 00:10:00;;;;;;;3.30;2.20;;;;;;;8.87;69.49;97990.60;89438;1279;80528;-57
2022/02/17 00:12:07;;;;;;;3.60;1.60;;;;;;;8.90;69.53;97990.67;89453;1279;83766;-71
2022/02/17 00:14:13;;;;;;;3.60;1.70;;;;;;;8.93;69.53;97978.00;89415;1279;99386;-70
2022/02/17 00:16:21;;;;;;;2.90;2.10;;;;;;;8.96;69.50;97965.63;89426;1279;89628;-70
2022/02/17 00:18:26;;;;;;;3.30;2.10;;;;;;;9.00;69.42;97961.20;89402;1279;94214;-70
2022/02/17 00:20:32;;;;;;;3.10;1.80;;;;;;;9.00;69.44;97951.39;89432;1279;80580;-70
2022/02/17 00:22:41;;;;;;;4.90;2.10;;;;;;;8.99;69.46;97935.52;89398;1279;83094;-70
2022/02/17 00:24:46;;;;;;;3.10;2.20;;;;;;;8.97;69.48;97912.34;89410;1279;99768;-70
2022/02/17 00:26:52;;;;;;;4.40;2.20;;;;;;;8.96;69.55;97905.64;89317;1281;89262;-70
2022/02/17 00:28:59;;;;;;;3.60;2.00;;;;;;;8.94;69.57;97904.31;89306;1281;94256;-71
2022/02/17 00:31:05;;;;;;;4.10;2.10;;;;;;;8.93;69.68;97903.97;89406;1279;82643;-57
2022/02/17 00:33:11;;;;;;;2.90;1.90;;;;;;;8.91;69.85;97886.37;89423;1279;83147;-57
2022/02/17 00:35:17;;;;;;;3.90;2.00;;;;;;;8.89;69.76;97877.90;89402;1279;99367;-57
2022/02/17 00:37:24;;;;;;;3.60;2.20;;;;;;;8.89;69.81;97866.69;89425;1279;89118;-69
2022/02/17 00:39:31;;;;;;;4.00;2.10;;;;;;;8.91;69.83;97862.08;89432;1278;93988;-69
2022/02/17 00:41:40;;;;;;;4.40;1.80;;;;;;;8.91;69.91;97865.45;89411;1279;79267;-70
2022/02/17 00:43:49;;;;;;;2.90;1.70;;;;;;;8.91;69.94;97867.60;89159;1280;81272;-70
2022/02/17 00:45:57;;;;;;;3.00;1.80;;;;;;;8.93;69.82;97869.08;89441;1279;98823;-57
2022/02/17 00:48:03;;;;;;;4.20;2.50;;;;;;;8.94;69.91;97876.95;89432;1279;88191;-57
2022/02/17 00:50:12;;;;;;;3.70;2.00;;;;;;;8.92;70.00;97879.18;89406;1279;95067;-57
2022/02/17 00:52:18;;;;;;;3.10;1.90;;;;;;;8.93;69.92;97871.87;89425;1279;78378;-57
2022/02/17 00:54:27;;;;;;;2.60;1.80;;;;;;;8.93;69.96;97855.06;89329;1281;80111;-57
2022/02/17 00:56:33;;;;;;;3.10;1.90;;;;;;;8.90;70.13;97857.77;89294;1281;97595;-70
2022/02/17 00:58:38;;;;;;;2.90;1.80;;;;;;;8.90;70.10;97857.88;89405;1279;89566;-70
2022/02/17 01:00:47;;;;;;;3.90;2.00;;;;;;;8.92;70.12;97853.55;89417;1279;93391;-70
2022/02/17 01:02:55;;;;;;;3.30;1.90;;;;;;;8.94;70.30;97848.78;89403;1279;82799;-70
2022/02/17 01:05:04;;;;;;;3.70;1.80;;;;;;;8.95;70.37;97836.48;89422;1277;81769;-70
2022/02/17 01:07:10;;;;;;;2.60;1.80;;;;;;;9.00;70.28;97825.42;89423;1279;97011;-70
2022/02/17 01:09:20;;;;;;;2.50;1.40;;;;;;;9.02;70.36;97823.09;89310;1281;87596;-70
2022/02/17 01:11:28;;;;;;;3.40;2.20;;;;;;;9.04;70.38;97815.59;89158;1281;93730;-69
2022/02/17 01:13:36;;;;;;;3.00;1.90;;;;;;;9.04;70.55;97799.22;89435;1279;78316;-70
2022/02/17 01:15:42;;;;;;;2.30;1.70;;;;;;;9.03;70.70;97781.01;89444;1279;80335;-70
2022/02/17 01:17:48;;;;;;;3.30;1.80;;;;;;;8.99;71.02;97745.48;89319;1281;99757;-70
2022/02/17 01:19:53;;;;;;;2.40;1.70;;;;;;;8.90;71.74;97713.80;89416;1279;88781;-70
2022/02/17 01:21:59;;;;;;;4.70;1.90;;;;;;;8.83;72.01;97699.67;89427;1279;94882;-70
2022/02/17 01:24:08;;;;;;;3.00;1.70;;;;;;;8.77;71.97;97676.80;89400;1279;79929;-70
2022/02/17 01:26:17;;;;;;;2.40;1.70;;;;;;;8.73;71.93;97665.96;89417;1279;81154;-57
2022/02/17 01:28:25;;;;;;;2.80;1.60;;;;;;;8.71;72.01;97649.63;89404;1279;98706;-57
2022/02/17 01:30:34;;;;;;;3.30;1.90;;;;;;;8.70;71.89;97625.98;89429;1279;88853;-59
2022/02/17 01:32:39;;;;;;;3.60;1.90;;;;;;;8.70;72.09;97625.45;89422;1278;94111;-57
2022/02/17 01:34:45;;;;;;;3.40;1.70;;;;;;;8.72;72.06;97628.71;89409;1279;78795;-57
2022/02/17 01:36:53;;;;;;;2.30;1.60;;;;;;;8.76;71.99;97645.23;89435;1279;81744;-57
2022/02/17 01:39:03;;;;;;;2.80;1.80;;;;;;;8.77;71.82;97648.39;89415;1279;100132;-57
2022/02/17 01:41:09;;;;;;;3.70;1.90;;;;;;;8.79;71.71;97649.16;89431;1279;87948;-72
2022/02/17 01:43:16;;;;;;;4.30;1.60;;;;;;;8.78;71.70;97642.04;89424;1279;95693;-70
2022/02/17 01:45:21;;;;;;;3.70;1.90;;;;;;;8.78;71.59;97638.10;89407;1279;81762;-73
2022/02/17 01:47:27;;;;;;;2.90;1.80;;;;;;;8.79;71.60;97623.85;89429;1279;80555;-69
2022/02/17 01:49:36;;;;;;;2.90;1.90;;;;;;;8.81;71.44;97605.80;89431;1279;99367;-70
2022/02/17 01:51:42;;;;;;;2.90;1.70;;;;;;;8.79;71.40;97593.52;89440;1279;89437;-57
2022/02/17 01:53:50;;;;;;;3.00;2.00;;;;;;;8.78;71.51;97588.64;89395;1279;94259;-57
2022/02/17 01:55:57;;;;;;;2.80;2.00;;;;;;;8.79;71.47;97580.53;89423;1279;78428;-57
2022/02/17 01:58:03;;;;;;;3.00;1.90;;;;;;;8.82;71.50;97561.30;89431;1279;82814;-58
2022/02/17 02:00:12;;;;;;;3.50;2.00;;;;;;;8.82;71.51;97553.55;89426;1279;98567;-57
2022/02/17 02:02:21;;;;;;;3.40;2.10;;;;;;;8.82;71.53;97547.63;89452;1279;88113;-57
2022/02/17 02:04:27;;;;;;;3.60;2.30;;;;;;;8.80;71.59;97522.89;89434;1279;95955;-57
2022/02/17 02:06:33;;;;;;;3.90;2.00;;;;;;;8.79;71.69;97516.67;89423;1279;79214;-71
2022/02/17 02:08:39;;;;;;;3.00;2.00;;;;;;;8.77;71.88;97538.77;89414;1279;79799;-70
2022/02/17 02:10:45;;;;;;;3.00;2.00;;;;;;;8.76;72.27;97536.45;89345;1281;99090;-71
2022/02/17 02:12:51;;;;;;;3.00;2.00;;;;;;;8.75;72.35;97537.56;89335;1281;88917;-71
2022/02/17 02:14:59;;;;;;;4.30;2.20;;;;;;;8.73;72.59;97530.28;89133;1281;95733;-71
2022/02/17 02:17:05;;;;;;;5.30;2.10;;;;;;;8.72;72.67;97526.54;89416;1279;79676;-57
2022/02/17 02:19:11;;;;;;;3.40;1.70;;;;;;;8.68;73.31;97516.90;89407;1279;82697;-58
2022/02/17 02:21:23;;;;;;;4.00;2.20;;;;;;;8.66;73.23;97513.60;89415;1279;100204;-57
2022/02/17 02:23:31;;;;;;;3.60;2.30;;;;;;;8.63;73.75;97495.10;89416;1279;88775;-57
2022/02/17 02:25:37;;;;;;;3.50;2.40;;;;;;;8.59;74.02;97488.20;89438;1279;94061;-70
2022/02/17 02:27:47;;;;;;;3.40;2.10;;;;;;;8.53;74.34;97465.19;89407;1279;80546;-71
2022/02/17 02:29:53;;;;;;;5.00;2.50;;;;;;;8.46;74.96;97464.12;89337;1281;81119;-67
2022/02/17 02:31:58;;;;;;;2.80;2.00;;;;;;;8.39;75.20;97449.92;89360;1279;99603;-69
2022/02/17 02:34:03;;;;;;;3.80;2.10;;;;;;;8.27;76.58;97439.42;89418;1280;88769;-70
2022/02/17 02:36:09;;;;;;;4.10;2.50;;;;;;;8.23;76.27;97438.90;89416;1280;93500;-69
2022/02/17 02:38:15;;;;;;;5.90;2.50;;;;;;;8.20;76.78;97421.86;89414;1280;81729;-69
2022/02/17 02:40:24;;;;;;;3.40;2.20;;;;;;;8.19;76.66;97410.88;89346;1281;83617;-69
2022/02/17 02:42:30;;;;;;;4.00;2.60;;;;;;;8.18;77.21;97405.38;89369;1280;98628;-58
2022/02/17 02:44:36;;;;;;;4.90;2.60;;;;;;;8.21;76.93;97395.15;89462;1279;88617;-58
2022/02/17 02:46:45;;;;;;;4.10;2.60;;;;;;;8.22;77.01;97382.95;89464;1278;94844;-58
2022/02/17 02:48:54;;;;;;;5.80;2.80;;;;;;;8.26;77.21;97375.13;89437;1280;79243;-58
2022/02/17 02:51:03;;;;;;;3.00;2.30;;;;;;;8.27;77.55;97355.79;89336;1281;83841;-58
2022/02/17 02:53:14;;;;;;;4.50;2.70;;;;;;;8.25;77.76;97346.55;89422;1280;99676;-57
2022/02/17 02:55:23;;;;;;;5.20;2.40;;;;;;;8.23;77.89;97338.45;89409;1279;88222;-57
2022/02/17 02:57:29;;;;;;;2.80;2.20;;;;;;;8.22;77.74;97336.83;89313;1281;95821;-57
2022/02/17 02:59:34;;;;;;;4.00;2.20;;;;;;;8.25;78.34;97332.04;89405;1279;79914;-58
2022/02/17 03:01:40;;;;;;;3.80;2.50;;;;;;;8.20;78.61;97323.35;89427;1279;83303;-68
2022/02/17 03:03:48;;;;;;;3.20;2.00;;;;;;;8.21;78.38;97329.27;89161;1281;100505;-69
2022/02/17 03:05:53;;;;;;;3.50;2.10;;;;;;;8.22;78.71;97319.34;89406;1279;88571;-57
2022/02/17 03:07:59;;;;;;;4.10;2.40;;;;;;;8.18;79.48;97314.55;89392;1279;92619;-58
2022/02/17 03:10:06;;;;;;;3.90;2.30;;;;;;;8.14;79.89;97301.70;89391;1279;79959;-62
2022/02/17 03:12:12;;;;;;;3.20;1.90;;;;;;;8.11;79.72;97296.88;89392;1280;81074;-57
2022/02/17 03:14:18;;;;;;;4.10;2.60;;;;;;;8.11;80.13;97295.48;89415;1280;100005;-58
2022/02/17 03:16:27;;;;;;;3.20;2.10;;;;;;;8.12;80.05;97291.73;89401;1279;89234;-58
2022/02/17 03:18:36;;;;;;;3.70;2.30;;;;;;;8.10;80.17;97296.00;89399;1280;95408;-58
2022/02/17 03:20:43;;;;;;;3.40;2.00;;;;;;;8.14;80.35;97280.46;89391;1279;80448;-69
2022/02/17 03:22:51;;;;;;;3.90;2.10;;;;;;;8.13;80.22;97277.55;89385;1281;83464;-69
2022/02/17 03:24:57;;;;;;;3.10;2.00;;;;;;;8.13;80.74;97287.44;89389;1279;100333;-65
2022/02/17 03:27:03;;;;;;;3.60;1.90;;;;;;;8.10;80.99;97276.44;89405;1280;88647;-68
2022/02/17 03:29:09;;;;;;;4.00;2.20;;;;;;;8.14;80.84;97275.73;89318;1281;94640;-66
2022/02/17 03:31:14;;;;;;;2.50;1.70;;;;;;;8.14;81.18;97265.19;89390;1278;79945;-67
2022/02/17 03:33:23;;;;;;;5.20;2.40;;;;;;;8.14;81.40;97243.30;89332;1281;81546;-67
2022/02/17 03:35:30;;;;;;;3.20;2.10;;;;;;;8.19;81.29;97242.89;89334;1281;99304;-57
2022/02/17 03:37:36;;;;;;;4.40;2.20;;;;;;;8.26;81.21;97244.85;89023;1280;502348;-57
2022/02/17 03:39:42;;;;;;;3.10;1.70;;;;;;;8.30;81.63;97252.94;89376;1279;95348;-59
2022/02/17 03:41:48;;;;;;;2.50;1.70;;;;;;;8.32;82.02;97247.53;89374;1280;79333;-58
2022/02/17 03:43:53;;;;;;;2.90;1.90;;;;;;;8.32;81.89;97230.96;89388;1279;80736;-58
2022/02/17 03:45:59;;;;;;;2.80;1.80;;;;;;;8.38;82.49;97231.41;89373;1279;100346;-69
2022/02/17 03:48:06;;;;;;;3.30;1.50;;;;;;;8.43;82.12;97230.11;89405;1280;89262;-69
2022/02/17 03:50:12;;;;;;;1.80;1.30;;;;;;;8.43;82.32;97205.31;89376;1279;94330;-68
2022/02/17 03:52:17;;;;;;;2.50;1.40;;;;;;;8.45;82.80;97204.09;89297;1281;81605;-65
2022/02/17 03:54:24;;;;;;;2.50;1.70;;;;;;;8.50;82.63;97203.02;89392;1279;81987;-66
2022/02/17 03:56:30;;;;;;;1.50;1.10;;;;;;;8.55;82.50;97198.55;89386;1280;98468;-69
2022/02/17 04:01:00;;;;;;;3.00;1.60;;;;;;;8.59;82.63;97169.75;89366;1280;95639;-67
2022/02/17 04:03:06;;;;;;;1.80;1.40;;;;;;;8.63;82.98;97172.53;89398;1281;81576;-66
2022/02/17 04:05:12;;;;;;;2.00;1.30;;;;;;;8.64;83.54;97171.73;89390;1279;80206;-66
2022/02/17 04:07:18;;;;;;;1.80;1.40;;;;;;;8.65;83.74;97164.31;89382;1281;99718;-67
2022/02/17 04:09:25;;;;;;;1.90;1.30;;;;;;;8.66;83.99;97153.77;89415;1279;88495;-58
2022/02/17 04:11:32;;;;;;;2.90;1.30;;;;;;;8.69;83.62;97139.54;89334;1281;93390;-67
2022/02/17 04:13:41;;;;;;;2.60;1.10;;;;;;;8.70;83.47;97125.67;89299;1280;82782;-66
2022/02/17 04:15:48;;;;;;;1.80;1.20;;;;;;;8.72;83.72;97106.85;89372;1281;83394;-56
2022/02/17 04:17:54;;;;;;;2.20;1.40;;;;;;;8.73;83.94;97099.37;89330;1281;98344;-57
2022/02/17 04:20:00;;;;;;;1.80;1.20;;;;;;;8.74;84.27;97090.39;89331;1281;87566;-58
2022/02/17 04:22:07;;;;;;;1.70;1.30;;;;;;;8.76;84.36;97091.96;89331;1281;94596;-69
2022/02/17 04:24:13;;;;;;;1.50;1.30;;;;;;;8.81;83.65;97105.56;89349;1281;79807;-67
2022/02/17 04:26:21;;;;;;;1.60;1.20;;;;;;;8.86;83.56;97092.63;89303;1281;80227;-67
2022/02/17 04:28:27;;;;;;;1.60;1.10;;;;;;;8.83;84.45;97081.66;89292;1280;99206;-66
2022/02/17 04:30:32;;;;;;;1.90;1.10;;;;;;;8.86;84.24;97089.23;89159;1280;88588;-67
2022/02/17 04:32:38;;;;;;;2.30;1.30;;;;;;;8.86;84.17;97090.30;89129;1281;92287;-67
2022/02/17 04:34:44;;;;;;;1.90;1.20;;;;;;;8.86;84.70;97042.83;89067;1282;81572;-70
2022/02/17 04:36:50;;;;;;;3.10;1.30;;;;;;;8.87;84.40;97046.77;89318;1281;81008;-69
2022/02/17 04:38:55;;;;;;;1.60;1.30;;;;;;;8.91;84.84;97057.61;89313;1280;99114;-66
2022/02/17 04:43:25;;;;;;;1.90;1.20;;;;;;;8.89;85.14;97033.48;89316;1281;93787;-68
2022/02/17 04:45:31;;;;;;;2.10;1.30;;;;;;;8.93;85.01;97031.30;89320;1281;79912;-68
2022/02/17 04:47:37;;;;;;;2.40;1.30;;;;;;;8.96;85.02;97015.21;89319;1281;82536;-70
2022/02/17 04:49:42;;;;;;;2.10;1.20;;;;;;;8.99;84.66;97009.95;89332;1281;99503;-70
2022/02/17 04:51:48;;;;;;;2.20;1.30;;;;;;;8.99;85.56;97010.27;89328;1280;89712;-71
2022/02/17 04:53:53;;;;;;;3.00;1.10;;;;;;;9.04;84.98;96995.82;89316;1281;95414;-57
2022/02/17 04:55:59;;;;;;;1.70;1.20;;;;;;;9.03;85.11;97015.52;89312;1280;80033;-68
2022/02/17 04:58:05;;;;;;;2.40;1.10;;;;;;;9.09;84.88;97012.10;89317;1279;82326;-67
2022/02/17 05:00:15;;;;;;;2.00;1.50;;;;;;;9.13;85.19;97006.89;89317;1281;99509;-73
2022/02/17 05:02:21;;;;;;;3.30;1.20;;;;;;;9.14;85.23;97002.80;89332;1281;88492;-60
2022/02/17 05:04:27;;;;;;;3.10;1.70;;;;;;;9.13;85.37;96995.21;89300;1280;93769;-60
2022/02/17 05:06:34;;;;;;;2.10;1.70;;;;;;;9.13;85.38;96982.98;89322;1281;80728;-57
2022/02/17 05:08:41;;;;;;;2.20;1.40;;;;;;;9.17;85.09;97010.84;89323;1280;82918;-58
2022/02/17 05:10:49;;;;;;;2.40;1.50;;;;;;;9.17;85.30;96999.11;89335;1281;99878;-66
2022/02/17 05:13:00;;;;;;;1.90;1.50;;;;;;;9.16;85.21;97018.27;89084;1282;88496;-66
2022/02/17 05:15:08;;;;;;;1.70;1.40;;;;;;;9.17;85.06;97027.98;89298;1281;95006;-66
2022/02/17 05:17:15;;;;;;;3.90;1.60;;;;;;;9.22;85.38;97055.46;89326;1281;81765;-69
2022/02/17 05:19:21;;;;;;;2.80;1.80;;;;;;;9.27;85.87;97061.84;89340;1280;81088;-69
2022/02/17 05:21:27;;;;;;;2.30;1.40;;;;;;;9.34;85.35;97089.67;89341;1281;99520;-57
2022/02/17 05:23:33;;;;;;;2.80;1.40;;;;;;;9.36;85.33;97107.84;89320;1280;87297;-58
2022/02/17 05:25:40;;;;;;;2.40;1.30;;;;;;;9.36;85.31;97111.71;89323;1281;94669;-63
2022/02/17 05:29:19;;;;;;;3.60;1.60;;;;;;;9.37;85.09;97128.36;89304;1280;79869;-57
2022/02/17 05:36:07;;;;;;;1.90;0.60;;;;;;;9.27;84.74;97244.73;88744;1285;97985;-68
2022/02/17 05:38:13;;;;;;;1.30;0.60;;;;;;;9.06;83.82;97247.61;88763;1285;87011;-68
2022/02/17 05:40:19;;;;;;;1.10;0.50;;;;;;;8.75;83.10;97252.19;88765;1285;92626;-65
2022/02/17 05:42:27;;;;;;;0.60;0.30;;;;;;;8.54;83.02;97230.44;88753;1285;79398;-65
2022/02/17 05:44:33;;;;;;;1.50;0.70;;;;;;;8.39;82.59;97217.27;88765;1285;83587;-66
2022/02/17 05:46:40;;;;;;;2.50;0.60;;;;;;;8.21;82.15;97187.10;88770;1285;97376;-67
2022/02/17 05:48:46;;;;;;;50.50;39.20;;;;;;;8.10;82.02;97166.10;88773;1285;89504;-67
2022/02/17 05:50:51;;;;;;;3.40;2.30;;;;;;;8.05;81.63;97148.58;88744;1285;95725;-70
2022/02/17 05:53:00;;;;;;;1.20;0.60;;;;;;;7.96;81.65;97100.42;88744;1285;79760;-68
2022/02/17 05:55:08;;;;;;;1.60;0.70;;;;;;;7.87;81.60;97084.09;88779;1285;83414;-69
2022/02/17 05:57:13;;;;;;;1.50;1.00;;;;;;;7.80;81.39;97081.96;88750;1285;99795;-69
2022/02/17 05:59:22;;;;;;;2.00;1.00;;;;;;;7.73;81.35;97087.21;88772;1285;87787;-70
2022/02/17 06:01:27;;;;;;;1.80;0.80;;;;;;;7.67;81.23;97102.25;88772;1285;93202;-70
2022/02/17 06:03:33;;;;;;;0.70;0.40;;;;;;;7.63;81.14;97119.23;89003;1281;80398;-71
2022/02/17 06:05:41;;;;;;;1.70;0.70;;;;;;;7.60;80.95;97125.48;89320;1281;80901;-70
2022/02/17 06:07:47;;;;;;;2.90;1.20;;;;;;;7.58;80.85;97130.20;89316;1281;99516;-69
2022/02/17 06:09:52;;;;;;;3.80;1.10;;;;;;;7.54;80.99;97124.98;89312;1281;88355;-69
2022/02/17 06:11:58;;;;;;;2.60;1.20;;;;;;;7.51;80.92;97141.32;89296;1281;95577;-70
2022/02/17 06:14:03;;;;;;;2.70;0.90;;;;;;;7.47;80.83;97161.30;89316;1281;79553;-70
2022/02/17 06:16:09;;;;;;;1.50;0.70;;;;;;;7.41;80.84;97177.23;89318;1281;83385;-70
2022/02/17 06:18:15;;;;;;;1.20;0.70;;;;;;;7.38;80.79;97180.05;89289;1281;99055;-71
2022/02/17 06:20:25;;;;;;;1.30;0.80;;;;;;;7.32;80.82;97188.23;89320;1281;86954;-70
2022/02/17 06:22:34;;;;;;;1.50;0.70;;;;;;;7.27;80.85;97181.02;89135;1281;94866;-71
2022/02/17 06:24:39;;;;;;;2.00;0.90;;;;;;;7.26;80.82;97177.65;89331;1281;81301;-70
2022/02/17 06:26:45;;;;;;;4.00;1.10;;;;;;;7.26;81.04;97188.67;89317;1281;81228;-71
2022/02/17 06:28:53;;;;;;;3.10;1.20;;;;;;;7.25;80.95;97188.39;89119;1281;97403;-71
2022/02/17 06:31:02;;;;;;;2.50;1.00;;;;;;;7.26;81.00;97190.45;89328;1280;88877;-71
2022/02/17 06:33:11;;;;;;;2.50;0.80;;;;;;;7.26;81.13;97178.78;89319;1280;94550;-72
2022/02/17 06:35:20;;;;;;;1.60;0.90;;;;;;;7.27;80.97;97171.34;89329;1280;77258;-73
2022/02/17 06:37:25;;;;;;;2.20;1.20;;;;;;;7.27;81.04;97180.19;89326;1281;81205;-72
2022/02/17 06:39:31;;;;;;;2.10;1.00;;;;;;;7.23;80.79;97215.89;89307;1281;100047;-72
2022/02/17 06:41:39;;;;;;;4.60;1.20;;;;;;;7.19;81.07;97178.84;89340;1281;87904;-71
2022/02/17 06:43:48;;;;;;;3.00;1.50;;;;;;;7.21;80.98;97145.70;89305;1280;95546;-71
2022/02/17 06:45:54;;;;;;;2.10;1.10;;;;;;;7.29;81.17;97162.08;89326;1281;82086;-70
2022/02/17 06:47:59;;;;;;;2.20;0.90;;;;;;;7.33;80.99;97169.08;89325;1280;80061;-72
2022/02/17 06:50:07;;;;;;;2.50;0.80;;;;;;;7.35;81.12;97159.36;89300;1280;100185;-71
2022/02/17 06:52:13;;;;;;;2.60;1.10;;;;;;;7.32;81.05;97178.70;89147;1281;88898;-72
2022/02/17 06:54:19;;;;;;;3.10;1.00;;;;;;;7.31;81.05;97181.72;89293;1280;95367;-72
2022/02/17 06:56:27;;;;;;;2.00;0.80;;;;;;;7.30;81.01;97179.59;89326;1281;78237;-58
2022/02/17 06:58:39;;;;;;;3.50;1.00;;;;;;;7.27;81.01;97167.47;89176;1281;80968;-58
2022/02/17 07:00:49;;;;;;;1.70;0.80;;;;;;;7.21;81.01;97131.84;89337;1281;99138;-71
2022/02/17 07:02:57;;;;;;;2.10;1.00;;;;;;;7.16;80.88;97083.09;89342;1280;88814;-71
2022/02/17 07:05:12;;;;;;;3.60;0.90;;;;;;;7.12;80.93;97091.89;89316;1281;95809;-72
2022/02/17 07:07:23;;;;;;;4.40;0.80;;;;;;;7.16;81.02;97130.05;89325;1281;79979;-72
2022/02/17 07:09:28;;;;;;;2.00;1.40;;;;;;;7.18;81.22;97126.91;89325;1280;83716;-72
2022/02/17 07:11:34;;;;;;;3.30;1.00;;;;;;;7.17;81.27;97122.67;89159;1280;98660;-73
2022/02/17 07:13:48;;;;;;;3.40;1.00;;;;;;;7.21;81.19;97148.91;89156;1281;88761;-73
2022/02/17 07:15:56;;;;;;;2.80;0.90;;;;;;;7.22;81.28;97162.47;89335;1280;92912;-71
2022/02/17 07:18:02;;;;;;;2.60;1.10;;;;;;;7.28;81.23;97190.58;89319;1279;81040;-71
2022/02/17 07:20:13;;;;;;;2.80;0.90;;;;;;;7.36;81.35;97212.29;89366;1281;80980;-72
2022/02/17 07:22:22;;;;;;;1.40;0.90;;;;;;;7.48;81.40;97213.70;89096;1281;100142;-72
2022/02/17 07:24:31;;;;;;;3.50;1.30;;;;;;;7.63;81.20;97213.25;89334;1280;88568;-71
2022/02/17 07:26:37;;;;;;;4.40;1.20;;;;;;;7.67;81.03;97205.56;89366;1281;95704;-72
2022/02/17 07:28:44;;;;;;;4.90;1.20;;;;;;;7.67;80.94;97207.56;89181;1281;79243;-72
2022/02/17 07:30:51;;;;;;;2.80;1.20;;;;;;;7.66;80.81;97197.88;89339;1279;81095;-59
2022/02/17 07:32:57;;;;;;;2.60;1.10;;;;;;;7.61;80.77;97202.70;89359;1280;96699;-59
2022/02/17 07:35:03;;;;;;;3.40;1.30;;;;;;;7.57;80.60;97211.24;89188;1280;87790;-59
2022/02/17 07:37:10;;;;;;;2.70;1.10;;;;;;;7.52;80.50;97218.48;89347;1281;95296;-59
2022/02/17 07:39:18;;;;;;;1.90;0.80;;;;;;;7.48;80.46;97220.61;89327;1280;80356;-57
2022/02/17 07:41:24;;;;;;;2.90;1.00;;;;;;;7.39;80.70;97221.73;89363;1280;82072;-73
2022/02/17 07:43:30;;;;;;;3.10;1.00;;;;;;;7.34;80.71;97221.02;89320;1280;99913;-73
2022/02/17 07:45:39;;;;;;;3.20;1.20;;;;;;;7.34;80.79;97219.83;89339;1281;87484;-59
2022/02/17 07:47:48;;;;;;;3.60;1.40;;;;;;;7.36;80.61;97209.70;89357;1280;93504;-58
2022/02/17 07:49:54;;;;;;;2.60;1.30;;;;;;;7.35;80.55;97206.89;89188;1280;80965;-58
2022/02/17 07:52:05;;;;;;;3.70;1.40;;;;;;;7.33;80.54;97204.89;89358;1280;83644;-57
2022/02/17 07:54:13;;;;;;;2.80;1.30;;;;;;;7.30;80.63;97205.38;89367;1281;99512;-57
2022/02/17 07:56:22;;;;;;;3.20;1.50;;;;;;;7.29;80.66;97209.33;89346;1281;89258;-71
2022/02/17 07:58:28;;;;;;;3.60;1.60;;;;;;;7.30;80.56;97209.89;89341;1281;93588;-72
2022/02/17 08:00:38;;;;;;;3.70;1.50;;;;;;;7.30;80.41;97209.45;89345;1280;79804;-58
2022/02/17 08:02:47;;;;;;;3.30;1.30;;;;;;;7.31;80.56;97208.12;89351;1281;82230;-58
2022/02/17 08:05:01;;;;;;;4.90;2.00;;;;;;;7.33;80.59;97193.30;89337;1281;98800;-58
2022/02/17 08:07:10;;;;;;;5.80;2.20;;;;;;;7.40;80.58;97201.16;89361;1280;87115;-57
2022/02/17 08:09:19;;;;;;;4.10;1.70;;;;;;;7.47;80.22;97217.66;89330;1281;96056;-57
2022/02/17 08:11:28;;;;;;;4.30;1.90;;;;;;;7.54;80.32;97228.12;89191;1281;78273;-58
2022/02/17 08:13:34;;;;;;;2.70;1.30;;;;;;;7.63;80.33;97231.95;89364;1281;82015;-58
2022/02/17 08:15:44;;;;;;;3.70;1.60;;;;;;;7.71;80.19;97231.63;89354;1280;97374;-58
2022/02/17 08:17:58;;;;;;;4.40;1.70;;;;;;;7.75;79.99;97223.89;89174;1281;88182;-58
2022/02/17 08:20:06;;;;;;;4.10;1.30;;;;;;;7.77;80.06;97236.07;89202;1281;94013;-57
2022/02/17 08:22:13;;;;;;;4.70;1.70;;;;;;;7.84;79.97;97237.98;89194;1281;81496;-70
2022/02/17 08:24:28;;;;;;;4.60;1.60;;;;;;;7.89;79.85;97214.56;89343;1281;82317;-71
2022/02/17 08:26:36;;;;;;;4.50;1.80;;;;;;;7.85;79.72;97204.13;89197;1280;97604;-72
2022/02/17 08:28:48;;;;;;;5.20;1.90;;;;;;;7.87;79.77;97215.13;89228;1280;87717;-72
2022/02/17 08:30:59;;;;;;;5.00;1.90;;;;;;;7.91;79.76;97221.77;89174;1281;94344;-72
2022/02/17 08:33:09;;;;;;;5.20;1.80;;;;;;;7.88;79.68;97228.36;89372;1280;78228;-72
2022/02/17 08:35:17;;;;;;;5.40;1.80;;;;;;;7.85;79.63;97221.16;89224;1278;80522;-72
2022/02/17 08:37:23;;;;;;;5.90;1.70;;;;;;;7.80;79.61;97180.37;89348;1281;100410;-71
2022/02/17 08:39:29;;;;;;;4.60;2.00;;;;;;;7.82;79.80;97179.96;89383;1280;88885;-72
2022/02/17 08:41:36;;;;;;;6.30;2.50;;;;;;;7.86;79.90;97186.02;89326;1281;95654;-72
2022/02/17 08:43:46;;;;;;;6.70;2.00;;;;;;;7.91;79.93;97188.73;89183;1280;81843;-70
2022/02/17 08:46:02;;;;;;;5.50;2.20;;;;;;;7.96;79.96;97188.35;88901;1284;82299;-72
2022/02/17 08:48:17;;;;;;;6.80;2.30;;;;;;;7.99;79.73;97187.11;89391;1281;98773;-67
2022/02/17 08:50:28;;;;;;;4.20;2.10;;;;;;;8.07;79.73;97183.76;89197;1281;88157;-58
2022/02/17 08:52:38;;;;;;;4.50;2.00;;;;;;;8.14;79.75;97184.80;89324;1281;95856;-58
2022/02/17 08:54:49;;;;;;;6.60;1.90;;;;;;;8.22;79.67;97186.02;89356;1281;77719;-58
2022/02/17 08:56:59;;;;;;;5.40;2.40;;;;;;;8.39;79.44;97196.23;89225;1280;81988;-72
2022/02/17 08:59:08;;;;;;;4.50;1.80;;;;;;;8.51;79.24;97198.56;89196;1279;98952;-73
2022/02/17 09:01:14;;;;;;;7.50;2.50;;;;;;;8.56;79.00;97197.59;89342;1281;87947;-71
2022/02/17 09:03:22;;;;;;;5.80;2.00;;;;;;;8.63;78.85;97178.61;89321;1280;95120;-72
2022/02/17 09:05:34;;;;;;;5.50;2.30;;;;;;;8.62;78.45;97175.64;89313;1281;80259;-67
2022/02/17 09:07:43;;;;;;;5.90;1.90;;;;;;;8.67;78.31;97182.08;89320;1281;80808;-72
2022/02/17 09:09:49;;;;;;;6.90;2.20;;;;;;;8.70;78.21;97171.41;89237;1280;99692;-74
2022/02/17 09:11:58;;;;;;;4.70;1.80;;;;;;;8.76;78.14;97175.61;89311;1280;87956;-65
2022/02/17 09:14:07;;;;;;;5.00;1.80;;;;;;;8.85;77.80;97171.54;89300;1281;93934;-67
2022/02/17 09:16:14;;;;;;;7.80;1.90;;;;;;;8.97;77.42;97172.55;89321;1281;78739;-66
2022/02/17 09:18:22;;;;;;;8.60;2.40;;;;;;;9.09;77.21;97174.02;89319;1281;81407;-71
2022/02/17 09:20:36;;;;;;;6.50;2.00;;;;;;;9.24;77.24;97176.77;89331;1280;99961;-60
2022/02/17 09:22:41;;;;;;;4.50;1.70;;;;;;;9.72;76.47;97165.23;89332;1280;89180;-71
2022/02/17 09:24:50;;;;;;;3.90;1.40;;;;;;;10.73;76.41;97156.69;89201;1281;96836;-74
2022/02/17 09:26:59;;;;;;;4.30;1.60;;;;;;;11.92;75.39;97148.26;89304;1281;80622;-71
2022/02/17 09:29:06;;;;;;;3.80;1.30;;;;;;;12.77;74.00;97144.74;89321;1281;83895;-60
2022/02/17 09:31:15;;;;;;;4.90;1.40;;;;;;;13.56;72.23;97127.83;89339;1281;100100;-73
2022/02/17 09:33:20;;;;;;;4.20;1.80;;;;;;;13.97;71.27;97136.47;89336;1281;89291;-70
2022/02/17 09:35:39;;;;;;;2.40;1.30;;;;;;;14.34;71.02;97140.17;89319;1281;94499;-70
2022/02/17 09:37:46;;;;;;;4.30;2.00;;;;;;;14.80;68.64;97140.80;89314;1281;78671;-58
2022/02/17 09:39:55;;;;;;;4.70;1.40;;;;;;;14.51;66.57;97147.30;89337;1281;81085;-59
2022/02/17 09:42:06;;;;;;;3.90;1.60;;;;;;;14.63;67.43;97156.67;89320;1281;99822;-72
2022/02/17 09:44:15;;;;;;;4.60;1.90;;;;;;;14.63;66.73;97145.30;89302;1280;88425;-71
2022/02/17 09:46:24;;;;;;;3.50;1.50;;;;;;;14.56;64.56;97141.40;89329;1280;94373;-72
2022/02/17 09:48:34;;;;;;;4.20;1.50;;;;;;;14.13;64.03;97143.21;89323;1281;77960;-72
2022/02/17 09:50:41;;;;;;;5.20;1.60;;;;;;;14.13;63.65;97154.78;89322;1281;83180;-57
2022/02/17 09:52:47;;;;;;;4.30;1.40;;;;;;;13.93;64.41;97161.43;89318;1280;98482;-58
2022/02/17 09:54:55;;;;;;;4.70;1.80;;;;;;;13.65;61.96;97152.30;89334;1281;87561;-58
2022/02/17 09:57:04;;;;;;;4.20;1.70;;;;;;;13.83;62.32;97154.77;89333;1280;95009;-58
2022/02/17 09:59:12;;;;;;;4.40;1.60;;;;;;;13.78;61.86;97143.48;89191;1281;79611;-58
2022/02/17 10:01:26;;;;;;;4.40;1.50;;;;;;;13.41;61.81;97159.39;89228;1281;80592;-70
2022/02/17 10:03:36;;;;;;;4.40;1.90;;;;;;;13.16;62.57;97164.73;89325;1281;99375;-71
2022/02/17 10:06:10;;;;;;;6.00;1.60;;;;;;;12.93;62.31;97161.05;89212;1281;89068;-72
2022/02/17 10:08:23;;;;;;;6.40;2.10;;;;;;;12.49;61.90;97167.52;89310;1281;92792;-72
2022/02/17 10:10:41;;;;;;;3.90;1.50;;;;;;;12.14;62.13;97174.81;89196;1281;80005;-66
2022/02/17 10:12:59;;;;;;;7.60;1.70;;;;;;;11.90;63.07;97173.95;89304;1281;82007;-59
2022/02/17 10:15:06;;;;;;;5.80;1.70;;;;;;;11.82;63.58;97177.00;89297;1281;99958;-59
2022/02/17 10:17:14;;;;;;;5.50;1.60;;;;;;;11.67;63.42;97171.46;89333;1280;88481;-59
2022/02/17 10:19:25;;;;;;;4.30;1.70;;;;;;;11.56;64.01;97163.46;89290;1281;95162;-59